sensor_id;sensor_type;location;lat;lon;timestamp;P1;durP1;ratioP1;P2;durP2;ratioP2
26391;SDS011;14572;43.120;1.178;2023-09-18T05:14:28;5.55;;;3.28;;
26391;SDS011;14572;43.120;1.178;2023-09-18T05:16:56;5.72;;;3.00;;
26391;SDS011;14572;43.120;1.178;2023-09-18T05:19:25;5.15;;;3.03;;
26391;SDS011;14572;43.120;1.178;2023-09-18T05:21:52;9.05;;;2.85;;
26391;SDS011;14572;43.120;1.178;2023-09-18T05:24:19;6.10;;;2.65;;
26391;SDS011;14572;43.120;1.178;2023-09-18T05:26:52;5.38;;;2.40;;
26391;SDS011;14572;43.120;1.178;2023-09-18T05:29:21;10.38;;;2.65;;
26391;SDS011;14572;43.120;1.178;2023-09-18T05:31:49;4.85;;;2.28;;
26391;SDS011;14572;43.120;1.178;2023-09-18T05:34:17;7.30;;;2.15;;
26391;SDS011;14572;43.120;1.178;2023-09-18T05:36:44;9.02;;;2.28;;
26391;SDS011;14572;43.120;1.178;2023-09-18T05:39:14;8.40;;;2.30;;
26391;SDS011;14572;43.120;1.178;2023-09-18T05:41:42;4.68;;;2.35;;
26391;SDS011;14572;43.120;1.178;2023-09-18T05:44:13;6.80;;;2.55;;
26391;SDS011;14572;43.120;1.178;2023-09-18T05:46:40;6.97;;;2.50;;
26391;SDS011;14572;43.120;1.178;2023-09-18T05:49:11;7.35;;;2.38;;
26391;SDS011;14572;43.120;1.178;2023-09-18T05:51:38;3.25;;;2.60;;
26391;SDS011;14572;43.120;1.178;2023-09-18T05:54:05;4.95;;;2.80;;
26391;SDS011;14572;43.120;1.178;2023-09-18T05:56:33;9.75;;;2.78;;
26391;SDS011;14572;43.120;1.178;2023-09-18T05:59:00;10.30;;;2.65;;
26391;SDS011;14572;43.120;1.178;2023-09-18T06:01:27;6.15;;;3.08;;
26391;SDS011;14572;43.120;1.178;2023-09-18T06:03:55;8.63;;;2.85;;
26391;SDS011;14572;43.120;1.178;2023-09-18T06:06:23;10.00;;;2.60;;
26391;SDS011;14572;43.120;1.178;2023-09-18T06:08:51;9.23;;;2.90;;
26391;SDS011;14572;43.120;1.178;2023-09-18T06:11:19;3.95;;;2.60;;
26391;SDS011;14572;43.120;1.178;2023-09-18T06:13:46;5.50;;;2.47;;
26391;SDS011;14572;43.120;1.178;2023-09-18T06:16:12;6.28;;;2.55;;
26391;SDS011;14572;43.120;1.178;2023-09-18T06:18:40;7.15;;;3.28;;
26391;SDS011;14572;43.120;1.178;2023-09-18T06:21:07;6.03;;;2.83;;
26391;SDS011;14572;43.120;1.178;2023-09-18T06:23:35;5.07;;;2.83;;
26391;SDS011;14572;43.120;1.178;2023-09-18T06:26:02;7.88;;;3.03;;
26391;SDS011;14572;43.120;1.178;2023-09-18T06:28:30;9.38;;;2.95;;
26391;SDS011;14572;43.120;1.178;2023-09-18T06:30:57;9.02;;;3.20;;
26391;SDS011;14572;43.120;1.178;2023-09-18T06:33:24;5.00;;;3.08;;
26391;SDS011;14572;43.120;1.178;2023-09-18T06:35:51;6.20;;;2.50;;
26391;SDS011;14572;43.120;1.178;2023-09-18T06:38:18;5.95;;;2.90;;
26391;SDS011;14572;43.120;1.178;2023-09-18T06:40:46;7.60;;;2.90;;
26391;SDS011;14572;43.120;1.178;2023-09-18T06:43:15;3.72;;;2.47;;
26391;SDS011;14572;43.120;1.178;2023-09-18T06:45:42;9.10;;;3.70;;
26391;SDS011;14572;43.120;1.178;2023-09-18T06:48:11;7.18;;;2.60;;
26391;SDS011;14572;43.120;1.178;2023-09-18T06:50:39;6.88;;;2.70;;
26391;SDS011;14572;43.120;1.178;2023-09-18T06:53:06;5.72;;;2.72;;
26391;SDS011;14572;43.120;1.178;2023-09-18T06:55:33;3.55;;;2.58;;
26391;SDS011;14572;43.120;1.178;2023-09-18T06:58:02;8.30;;;2.45;;
26391;SDS011;14572;43.120;1.178;2023-09-18T07:00:29;5.05;;;2.78;;
26391;SDS011;14572;43.120;1.178;2023-09-18T07:02:56;6.55;;;2.58;;
26391;SDS011;14572;43.120;1.178;2023-09-18T07:05:23;6.07;;;2.58;;
26391;SDS011;14572;43.120;1.178;2023-09-18T07:07:50;10.13;;;3.00;;
26391;SDS011;14572;43.120;1.178;2023-09-18T07:10:17;6.88;;;2.83;;
26391;SDS011;14572;43.120;1.178;2023-09-18T07:12:44;5.13;;;2.85;;
26391;SDS011;14572;43.120;1.178;2023-09-18T07:15:12;5.93;;;3.20;;
26391;SDS011;14572;43.120;1.178;2023-09-18T07:17:39;7.15;;;2.92;;
26391;SDS011;14572;43.120;1.178;2023-09-18T07:20:07;6.72;;;2.78;;
26391;SDS011;14572;43.120;1.178;2023-09-18T07:22:39;5.07;;;2.67;;
26391;SDS011;14572;43.120;1.178;2023-09-18T07:25:06;11.10;;;3.83;;
26391;SDS011;14572;43.120;1.178;2023-09-18T07:27:33;6.60;;;3.47;;
26391;SDS011;14572;43.120;1.178;2023-09-18T07:30:01;6.28;;;3.22;;
26391;SDS011;14572;43.120;1.178;2023-09-18T07:32:31;3.85;;;3.28;;
26391;SDS011;14572;43.120;1.178;2023-09-18T07:34:57;5.82;;;2.85;;
26391;SDS011;14572;43.120;1.178;2023-09-18T07:37:25;4.25;;;2.50;;
26391;SDS011;14572;43.120;1.178;2023-09-18T07:39:52;5.32;;;2.80;;
26391;SDS011;14572;43.120;1.178;2023-09-18T07:42:20;5.78;;;2.55;;
26391;SDS011;14572;43.120;1.178;2023-09-18T07:44:50;4.70;;;2.90;;
26391;SDS011;14572;43.120;1.178;2023-09-18T07:47:17;9.98;;;3.00;;
26391;SDS011;14572;43.120;1.178;2023-09-18T07:49:46;7.32;;;2.50;;
26391;SDS011;14572;43.120;1.178;2023-09-18T07:52:13;8.48;;;2.65;;
26391;SDS011;14572;43.120;1.178;2023-09-18T07:54:41;6.68;;;3.33;;
26391;SDS011;14572;43.120;1.178;2023-09-18T07:57:08;6.18;;;2.30;;
26391;SDS011;14572;43.120;1.178;2023-09-18T07:59:35;9.15;;;2.20;;
26391;SDS011;14572;43.120;1.178;2023-09-18T08:02:02;2.80;;;2.40;;
26391;SDS011;14572;43.120;1.178;2023-09-18T08:04:30;6.38;;;2.47;;
26391;SDS011;14572;43.120;1.178;2023-09-18T08:07:00;5.95;;;2.72;;
26391;SDS011;14572;43.120;1.178;2023-09-18T08:09:26;4.82;;;2.40;;
26391;SDS011;14572;43.120;1.178;2023-09-18T08:11:54;5.30;;;2.45;;
26391;SDS011;14572;43.120;1.178;2023-09-18T08:14:22;7.78;;;3.05;;
26391;SDS011;14572;43.120;1.178;2023-09-18T08:16:55;4.13;;;2.50;;
26391;SDS011;14572;43.120;1.178;2023-09-18T08:19:23;7.60;;;2.83;;
26391;SDS011;14572;43.120;1.178;2023-09-18T08:21:51;4.07;;;2.65;;
26391;SDS011;14572;43.120;1.178;2023-09-18T08:24:20;6.60;;;2.80;;
26391;SDS011;14572;43.120;1.178;2023-09-18T08:26:47;6.55;;;2.75;;
26391;SDS011;14572;43.120;1.178;2023-09-18T08:29:14;5.28;;;2.60;;
26391;SDS011;14572;43.120;1.178;2023-09-18T08:31:42;11.95;;;2.72;;
26391;SDS011;14572;43.120;1.178;2023-09-18T08:34:09;4.30;;;2.40;;
26391;SDS011;14572;43.120;1.178;2023-09-18T08:36:36;5.57;;;3.38;;
26391;SDS011;14572;43.120;1.178;2023-09-18T08:39:03;8.45;;;3.35;;
26391;SDS011;14572;43.120;1.178;2023-09-18T08:41:33;4.85;;;2.50;;
26391;SDS011;14572;43.120;1.178;2023-09-18T08:44:05;6.05;;;2.75;;
26391;SDS011;14572;43.120;1.178;2023-09-18T08:46:35;7.88;;;2.63;;
26391;SDS011;14572;43.120;1.178;2023-09-18T08:49:02;5.22;;;2.55;;
26391;SDS011;14572;43.120;1.178;2023-09-18T08:51:30;4.90;;;2.70;;
26391;SDS011;14572;43.120;1.178;2023-09-18T08:53:59;7.63;;;2.90;;
26391;SDS011;14572;43.120;1.178;2023-09-18T08:56:26;6.32;;;2.88;;
26391;SDS011;14572;43.120;1.178;2023-09-18T08:58:55;5.82;;;2.60;;
26391;SDS011;14572;43.120;1.178;2023-09-18T09:01:25;5.95;;;2.65;;
26391;SDS011;14572;43.120;1.178;2023-09-18T09:03:52;9.10;;;2.67;;
26391;SDS011;14572;43.120;1.178;2023-09-18T09:06:20;8.25;;;2.63;;
26391;SDS011;14572;43.120;1.178;2023-09-18T09:08:47;5.13;;;2.78;;
26391;SDS011;14572;43.120;1.178;2023-09-18T09:11:14;8.68;;;2.38;;
26391;SDS011;14572;43.120;1.178;2023-09-18T09:13:41;5.80;;;2.60;;
26391;SDS011;14572;43.120;1.178;2023-09-18T09:16:10;8.38;;;2.67;;
26391;SDS011;14572;43.120;1.178;2023-09-18T09:18:47;6.20;;;2.33;;
26391;SDS011;14572;43.120;1.178;2023-09-18T09:21:14;8.40;;;3.17;;
26391;SDS011;14572;43.120;1.178;2023-09-18T09:23:45;6.40;;;2.80;;
26391;SDS011;14572;43.120;1.178;2023-09-18T09:26:14;8.05;;;3.17;;
26391;SDS011;14572;43.120;1.178;2023-09-18T09:28:42;8.68;;;3.30;;
26391;SDS011;14572;43.120;1.178;2023-09-18T09:31:11;7.00;;;3.50;;
26391;SDS011;14572;43.120;1.178;2023-09-18T09:33:50;11.82;;;3.67;;
26391;SDS011;14572;43.120;1.178;2023-09-18T09:36:19;7.68;;;3.45;;
26391;SDS011;14572;43.120;1.178;2023-09-18T09:38:46;11.93;;;4.20;;
26391;SDS011;14572;43.120;1.178;2023-09-18T09:41:13;9.75;;;4.30;;
26391;SDS011;14572;43.120;1.178;2023-09-18T09:43:41;7.95;;;3.45;;
26391;SDS011;14572;43.120;1.178;2023-09-18T09:46:12;5.57;;;3.40;;
26391;SDS011;14572;43.120;1.178;2023-09-18T09:48:57;6.55;;;3.50;;
26391;SDS011;14572;43.120;1.178;2023-09-18T09:51:26;11.50;;;3.40;;
26391;SDS011;14572;43.120;1.178;2023-09-18T09:53:53;7.13;;;3.33;;
26391;SDS011;14572;43.120;1.178;2023-09-18T09:56:21;13.18;;;3.90;;
26391;SDS011;14572;43.120;1.178;2023-09-18T09:59:00;13.13;;;3.72;;
26391;SDS011;14572;43.120;1.178;2023-09-18T10:01:31;7.60;;;3.28;;
26391;SDS011;14572;43.120;1.178;2023-09-18T10:03:59;10.93;;;3.92;;
26391;SDS011;14572;43.120;1.178;2023-09-18T10:06:26;8.50;;;3.17;;
26391;SDS011;14572;43.120;1.178;2023-09-18T10:08:55;6.78;;;2.97;;
26391;SDS011;14572;43.120;1.178;2023-09-18T10:11:23;11.40;;;3.72;;
26391;SDS011;14572;43.120;1.178;2023-09-18T10:13:52;6.30;;;3.22;;
26391;SDS011;14572;43.120;1.178;2023-09-18T10:16:22;7.88;;;3.50;;
26391;SDS011;14572;43.120;1.178;2023-09-18T10:18:54;7.65;;;3.35;;
26391;SDS011;14572;43.120;1.178;2023-09-18T10:21:25;7.75;;;3.47;;
26391;SDS011;14572;43.120;1.178;2023-09-18T10:23:58;11.00;;;3.40;;
26391;SDS011;14572;43.120;1.178;2023-09-18T10:26:29;6.90;;;3.10;;
26391;SDS011;14572;43.120;1.178;2023-09-18T10:28:59;8.70;;;3.72;;
26391;SDS011;14572;43.120;1.178;2023-09-18T10:31:28;9.98;;;3.50;;
26391;SDS011;14572;43.120;1.178;2023-09-18T10:33:58;7.88;;;3.28;;
26391;SDS011;14572;43.120;1.178;2023-09-18T10:36:25;9.82;;;3.67;;
26391;SDS011;14572;43.120;1.178;2023-09-18T10:38:53;7.10;;;3.30;;
26391;SDS011;14572;43.120;1.178;2023-09-18T10:41:22;7.28;;;3.33;;
26391;SDS011;14572;43.120;1.178;2023-09-18T10:43:51;6.90;;;2.67;;
26391;SDS011;14572;43.120;1.178;2023-09-18T10:46:21;7.22;;;3.13;;
26391;SDS011;14572;43.120;1.178;2023-09-18T10:48:49;4.63;;;2.78;;
26391;SDS011;14572;43.120;1.178;2023-09-18T10:51:20;5.18;;;3.10;;
26391;SDS011;14572;43.120;1.178;2023-09-18T10:53:48;4.65;;;2.60;;
26391;SDS011;14572;43.120;1.178;2023-09-18T10:56:15;6.47;;;2.80;;
26391;SDS011;14572;43.120;1.178;2023-09-18T10:58:42;8.15;;;3.15;;
26391;SDS011;14572;43.120;1.178;2023-09-18T11:01:11;7.63;;;2.85;;
26391;SDS011;14572;43.120;1.178;2023-09-18T11:03:38;7.20;;;3.03;;
26391;SDS011;14572;43.120;1.178;2023-09-18T11:06:06;10.02;;;3.10;;
26391;SDS011;14572;43.120;1.178;2023-09-18T11:08:42;6.20;;;2.30;;
26391;SDS011;14572;43.120;1.178;2023-09-18T11:11:11;7.40;;;3.00;;
26391;SDS011;14572;43.120;1.178;2023-09-18T11:13:40;5.47;;;2.70;;
26391;SDS011;14572;43.120;1.178;2023-09-18T11:16:18;8.90;;;3.15;;
26391;SDS011;14572;43.120;1.178;2023-09-18T11:19:10;6.30;;;2.80;;
26391;SDS011;14572;43.120;1.178;2023-09-18T11:21:39;11.48;;;3.42;;
26391;SDS011;14572;43.120;1.178;2023-09-18T11:24:08;6.20;;;2.47;;
26391;SDS011;14572;43.120;1.178;2023-09-18T11:26:43;7.28;;;2.72;;
26391;SDS011;14572;43.120;1.178;2023-09-18T11:29:11;8.00;;;3.20;;
26391;SDS011;14572;43.120;1.178;2023-09-18T11:31:44;8.50;;;3.10;;
26391;SDS011;14572;43.120;1.178;2023-09-18T11:34:13;8.23;;;3.35;;
26391;SDS011;14572;43.120;1.178;2023-09-18T11:36:42;9.00;;;3.45;;
26391;SDS011;14572;43.120;1.178;2023-09-18T11:39:11;4.85;;;3.30;;
26391;SDS011;14572;43.120;1.178;2023-09-18T11:41:39;7.95;;;3.50;;
26391;SDS011;14572;43.120;1.178;2023-09-18T11:47:06;5.88;;;2.75;;
26391;SDS011;14572;43.120;1.178;2023-09-18T11:49:38;8.65;;;3.28;;
26391;SDS011;14572;43.120;1.178;2023-09-18T11:52:09;7.57;;;3.40;;
26391;SDS011;14572;43.120;1.178;2023-09-18T11:54:40;8.57;;;3.08;;
26391;SDS011;14572;43.120;1.178;2023-09-18T11:57:08;4.53;;;2.55;;
26391;SDS011;14572;43.120;1.178;2023-09-18T11:59:36;8.55;;;3.20;;
26391;SDS011;14572;43.120;1.178;2023-09-18T12:02:04;8.73;;;3.22;;
26391;SDS011;14572;43.120;1.178;2023-09-18T12:04:33;8.90;;;3.03;;
26391;SDS011;14572;43.120;1.178;2023-09-18T12:07:01;9.48;;;3.15;;
26391;SDS011;14572;43.120;1.178;2023-09-18T12:09:29;5.88;;;3.10;;
26391;SDS011;14572;43.120;1.178;2023-09-18T12:11:58;6.18;;;2.70;;
26391;SDS011;14572;43.120;1.178;2023-09-18T12:14:30;6.45;;;2.70;;
26391;SDS011;14572;43.120;1.178;2023-09-18T12:16:58;5.18;;;2.95;;
26391;SDS011;14572;43.120;1.178;2023-09-18T12:19:27;8.32;;;3.05;;
26391;SDS011;14572;43.120;1.178;2023-09-18T12:21:54;7.45;;;2.70;;
26391;SDS011;14572;43.120;1.178;2023-09-18T12:24:21;5.97;;;2.63;;
26391;SDS011;14572;43.120;1.178;2023-09-18T12:26:48;5.55;;;2.78;;
26391;SDS011;14572;43.120;1.178;2023-09-18T12:29:17;5.07;;;3.00;;
26391;SDS011;14572;43.120;1.178;2023-09-18T12:31:45;8.32;;;3.00;;
26391;SDS011;14572;43.120;1.178;2023-09-18T12:34:15;10.40;;;3.75;;
26391;SDS011;14572;43.120;1.178;2023-09-18T12:36:43;7.95;;;3.08;;
26391;SDS011;14572;43.120;1.178;2023-09-18T12:39:12;5.25;;;2.97;;
26391;SDS011;14572;43.120;1.178;2023-09-18T12:41:41;7.43;;;2.47;;
26391;SDS011;14572;43.120;1.178;2023-09-18T12:44:08;5.55;;;3.00;;
26391;SDS011;14572;43.120;1.178;2023-09-18T12:46:37;5.03;;;2.40;;
26391;SDS011;14572;43.120;1.178;2023-09-18T12:49:15;3.97;;;2.38;;
26391;SDS011;14572;43.120;1.178;2023-09-18T12:51:43;11.77;;;2.85;;
26391;SDS011;14572;43.120;1.178;2023-09-18T12:54:11;14.52;;;3.05;;
26391;SDS011;14572;43.120;1.178;2023-09-18T12:56:42;10.63;;;3.22;;
26391;SDS011;14572;43.120;1.178;2023-09-18T12:59:09;7.68;;;2.50;;
26391;SDS011;14572;43.120;1.178;2023-09-18T13:01:40;8.48;;;2.20;;
26391;SDS011;14572;43.120;1.178;2023-09-18T13:04:07;6.95;;;3.13;;
26391;SDS011;14572;43.120;1.178;2023-09-18T13:06:38;7.13;;;2.70;;
26391;SDS011;14572;43.120;1.178;2023-09-18T13:09:15;5.38;;;2.78;;
26391;SDS011;14572;43.120;1.178;2023-09-18T13:11:52;6.00;;;2.72;;
26391;SDS011;14572;43.120;1.178;2023-09-18T13:14:20;8.90;;;2.58;;
26391;SDS011;14572;43.120;1.178;2023-09-18T13:16:49;7.43;;;2.50;;
26391;SDS011;14572;43.120;1.178;2023-09-18T13:19:17;7.68;;;2.53;;
26391;SDS011;14572;43.120;1.178;2023-09-18T13:21:47;3.28;;;2.03;;
26391;SDS011;14572;43.120;1.178;2023-09-18T13:24:24;5.82;;;2.20;;
26391;SDS011;14572;43.120;1.178;2023-09-18T13:26:54;6.88;;;2.28;;
26391;SDS011;14572;43.120;1.178;2023-09-18T13:29:22;4.03;;;2.10;;
26391;SDS011;14572;43.120;1.178;2023-09-18T13:31:51;5.03;;;2.50;;
26391;SDS011;14572;43.120;1.178;2023-09-18T13:34:18;6.55;;;2.45;;
26391;SDS011;14572;43.120;1.178;2023-09-18T13:36:46;7.00;;;2.38;;
26391;SDS011;14572;43.120;1.178;2023-09-18T13:39:13;9.07;;;2.65;;
26391;SDS011;14572;43.120;1.178;2023-09-18T13:41:42;8.35;;;2.60;;
26391;SDS011;14572;43.120;1.178;2023-09-18T13:44:09;5.53;;;2.55;;
26391;SDS011;14572;43.120;1.178;2023-09-18T13:46:36;7.60;;;2.90;;
26391;SDS011;14572;43.120;1.178;2023-09-18T13:49:05;4.40;;;2.25;;
26391;SDS011;14572;43.120;1.178;2023-09-18T13:51:32;8.82;;;2.65;;
26391;SDS011;14572;43.120;1.178;2023-09-18T13:53:59;4.45;;;2.53;;
26391;SDS011;14572;43.120;1.178;2023-09-18T13:56:29;4.05;;;2.40;;
26391;SDS011;14572;43.120;1.178;2023-09-18T13:58:56;6.32;;;2.55;;
26391;SDS011;14572;43.120;1.178;2023-09-18T14:01:23;11.15;;;2.90;;
26391;SDS011;14572;43.120;1.178;2023-09-18T14:03:51;6.13;;;2.53;;
26391;SDS011;14572;43.120;1.178;2023-09-18T14:06:20;4.38;;;2.33;;
26391;SDS011;14572;43.120;1.178;2023-09-18T14:08:48;5.60;;;2.65;;
26391;SDS011;14572;43.120;1.178;2023-09-18T14:11:15;8.75;;;2.45;;
26391;SDS011;14572;43.120;1.178;2023-09-18T14:13:43;6.72;;;2.70;;
26391;SDS011;14572;43.120;1.178;2023-09-18T14:16:10;7.28;;;2.55;;
26391;SDS011;14572;43.120;1.178;2023-09-18T14:18:39;4.07;;;2.58;;
26391;SDS011;14572;43.120;1.178;2023-09-18T14:21:07;6.93;;;2.53;;
26391;SDS011;14572;43.120;1.178;2023-09-18T14:23:36;5.78;;;2.50;;
26391;SDS011;14572;43.120;1.178;2023-09-18T14:26:03;4.03;;;2.30;;
26391;SDS011;14572;43.120;1.178;2023-09-18T14:28:30;5.88;;;2.05;;
26391;SDS011;14572;43.120;1.178;2023-09-18T14:30:59;6.05;;;2.47;;
26391;SDS011;14572;43.120;1.178;2023-09-18T14:33:29;6.70;;;2.28;;
26391;SDS011;14572;43.120;1.178;2023-09-18T14:35:56;5.38;;;2.50;;
26391;SDS011;14572;43.120;1.178;2023-09-18T14:38:23;6.10;;;2.33;;
26391;SDS011;14572;43.120;1.178;2023-09-18T14:40:52;4.78;;;2.30;;
26391;SDS011;14572;43.120;1.178;2023-09-18T14:43:25;5.15;;;2.38;;
26391;SDS011;14572;43.120;1.178;2023-09-18T14:45:52;3.83;;;2.30;;
26391;SDS011;14572;43.120;1.178;2023-09-18T14:48:21;5.30;;;2.17;;
26391;SDS011;14572;43.120;1.178;2023-09-18T14:50:52;4.35;;;1.92;;
26391;SDS011;14572;43.120;1.178;2023-09-18T14:53:20;3.97;;;1.58;;
26391;SDS011;14572;43.120;1.178;2023-09-18T14:55:48;4.47;;;1.52;;
26391;SDS011;14572;43.120;1.178;2023-09-18T14:58:16;4.93;;;1.50;;
26391;SDS011;14572;43.120;1.178;2023-09-18T15:00:47;5.45;;;1.77;;
26391;SDS011;14572;43.120;1.178;2023-09-18T15:03:14;2.58;;;1.27;;
26391;SDS011;14572;43.120;1.178;2023-09-18T15:05:41;1.50;;;1.40;;
26391;SDS011;14572;43.120;1.178;2023-09-18T15:08:08;1.58;;;1.48;;
26391;SDS011;14572;43.120;1.178;2023-09-18T15:10:35;1.80;;;1.30;;
26391;SDS011;14572;43.120;1.178;2023-09-18T15:13:03;3.17;;;1.50;;
26391;SDS011;14572;43.120;1.178;2023-09-18T15:15:32;1.50;;;1.40;;
26391;SDS011;14572;43.120;1.178;2023-09-18T15:17:59;1.45;;;1.23;;
26391;SDS011;14572;43.120;1.178;2023-09-18T15:20:26;3.10;;;1.48;;
26391;SDS011;14572;43.120;1.178;2023-09-18T15:22:53;1.42;;;1.30;;
26391;SDS011;14572;43.120;1.178;2023-09-18T15:25:21;1.92;;;1.30;;
26391;SDS011;14572;43.120;1.178;2023-09-18T15:27:48;1.33;;;1.13;;
26391;SDS011;14572;43.120;1.178;2023-09-18T15:30:15;1.77;;;1.20;;
26391;SDS011;14572;43.120;1.178;2023-09-18T15:32:47;2.05;;;1.10;;
26391;SDS011;14572;43.120;1.178;2023-09-18T15:35:15;1.67;;;1.10;;
26391;SDS011;14572;43.120;1.178;2023-09-18T15:37:43;1.20;;;0.98;;
26391;SDS011;14572;43.120;1.178;2023-09-18T15:40:10;2.40;;;1.15;;
26391;SDS011;14572;43.120;1.178;2023-09-18T15:42:40;3.75;;;1.00;;
26391;SDS011;14572;43.120;1.178;2023-09-18T15:45:08;1.42;;;1.08;;
26391;SDS011;14572;43.120;1.178;2023-09-18T15:47:36;2.28;;;1.20;;
26391;SDS011;14572;43.120;1.178;2023-09-18T15:50:05;1.88;;;1.50;;
26391;SDS011;14572;43.120;1.178;2023-09-18T15:52:33;2.45;;;1.30;;
26391;SDS011;14572;43.120;1.178;2023-09-18T15:55:00;3.35;;;1.20;;
26391;SDS011;14572;43.120;1.178;2023-09-18T15:57:31;1.35;;;1.10;;
26391;SDS011;14572;43.120;1.178;2023-09-18T15:59:59;2.95;;;1.40;;
26391;SDS011;14572;43.120;1.178;2023-09-18T16:02:29;1.70;;;1.15;;
26391;SDS011;14572;43.120;1.178;2023-09-18T16:04:57;4.88;;;1.15;;
26391;SDS011;14572;43.120;1.178;2023-09-18T16:07:25;1.65;;;1.15;;
26391;SDS011;14572;43.120;1.178;2023-09-18T16:09:52;2.10;;;1.17;;
26391;SDS011;14572;43.120;1.178;2023-09-18T16:12:20;1.20;;;1.10;;
26391;SDS011;14572;43.120;1.178;2023-09-18T16:14:47;4.72;;;1.33;;
26391;SDS011;14572;43.120;1.178;2023-09-18T16:17:14;5.18;;;1.20;;
26391;SDS011;14572;43.120;1.178;2023-09-18T16:19:41;1.20;;;1.10;;
26391;SDS011;14572;43.120;1.178;2023-09-18T16:22:09;1.13;;;1.10;;
26391;SDS011;14572;43.120;1.178;2023-09-18T16:24:39;2.30;;;1.30;;
26391;SDS011;14572;43.120;1.178;2023-09-18T16:27:06;4.15;;;1.30;;
26391;SDS011;14572;43.120;1.178;2023-09-18T16:29:33;2.58;;;1.38;;
26391;SDS011;14572;43.120;1.178;2023-09-18T16:32:00;1.10;;;1.00;;
26391;SDS011;14572;43.120;1.178;2023-09-18T16:34:28;3.38;;;1.20;;
26391;SDS011;14572;43.120;1.178;2023-09-18T16:36:55;1.33;;;1.20;;
26391;SDS011;14572;43.120;1.178;2023-09-18T16:39:22;1.63;;;1.10;;
26391;SDS011;14572;43.120;1.178;2023-09-18T16:41:52;1.40;;;1.20;;
26391;SDS011;14572;43.120;1.178;2023-09-18T16:44:19;2.05;;;1.20;;
26391;SDS011;14572;43.120;1.178;2023-09-18T16:46:46;3.50;;;1.02;;
26391;SDS011;14572;43.120;1.178;2023-09-18T16:49:13;1.73;;;1.08;;
26391;SDS011;14572;43.120;1.178;2023-09-18T16:51:47;1.55;;;1.17;;
26391;SDS011;14572;43.120;1.178;2023-09-18T16:54:14;3.53;;;1.00;;
26391;SDS011;14572;43.120;1.178;2023-09-18T16:56:42;1.50;;;1.15;;
26391;SDS011;14572;43.120;1.178;2023-09-18T16:59:12;1.42;;;1.10;;
26391;SDS011;14572;43.120;1.178;2023-09-18T17:01:39;1.10;;;1.00;;
26391;SDS011;14572;43.120;1.178;2023-09-18T17:04:06;3.15;;;1.20;;
26391;SDS011;14572;43.120;1.178;2023-09-18T17:06:35;4.72;;;1.33;;
26391;SDS011;14572;43.120;1.178;2023-09-18T17:09:02;1.30;;;1.20;;
26391;SDS011;14572;43.120;1.178;2023-09-18T17:11:30;1.23;;;1.05;;
26391;SDS011;14572;43.120;1.178;2023-09-18T17:13:57;2.47;;;1.10;;
26391;SDS011;14572;43.120;1.178;2023-09-18T17:16:26;4.13;;;1.23;;
26391;SDS011;14572;43.120;1.178;2023-09-18T17:18:55;1.88;;;1.27;;
26391;SDS011;14572;43.120;1.178;2023-09-18T17:21:22;3.47;;;1.17;;
26391;SDS011;14572;43.120;1.178;2023-09-18T17:23:49;5.25;;;1.25;;
26391;SDS011;14572;43.120;1.178;2023-09-18T17:26:17;3.83;;;1.33;;
26391;SDS011;14572;43.120;1.178;2023-09-18T17:28:44;2.80;;;1.15;;
26391;SDS011;14572;43.120;1.178;2023-09-18T17:31:11;4.82;;;1.58;;
26391;SDS011;14572;43.120;1.178;2023-09-18T17:33:40;2.88;;;1.30;;
26391;SDS011;14572;43.120;1.178;2023-09-18T17:36:09;3.28;;;1.20;;
26391;SDS011;14572;43.120;1.178;2023-09-18T17:38:37;3.08;;;1.25;;
26391;SDS011;14572;43.120;1.178;2023-09-18T17:41:04;3.42;;;1.10;;
26391;SDS011;14572;43.120;1.178;2023-09-18T17:43:32;4.18;;;1.35;;
26391;SDS011;14572;43.120;1.178;2023-09-18T17:45:59;2.45;;;1.30;;
26391;SDS011;14572;43.120;1.178;2023-09-18T17:48:26;3.85;;;1.17;;
26391;SDS011;14572;43.120;1.178;2023-09-18T17:51:07;4.00;;;1.27;;
26391;SDS011;14572;43.120;1.178;2023-09-18T17:53:35;2.38;;;1.13;;
26391;SDS011;14572;43.120;1.178;2023-09-18T17:56:04;1.92;;;1.10;;
26391;SDS011;14572;43.120;1.178;2023-09-18T17:58:31;2.90;;;1.30;;
26391;SDS011;14572;43.120;1.178;2023-09-18T18:00:58;6.63;;;1.77;;
26391;SDS011;14572;43.120;1.178;2023-09-18T18:03:25;5.03;;;1.17;;
26391;SDS011;14572;43.120;1.178;2023-09-18T18:05:52;4.25;;;1.50;;
26391;SDS011;14572;43.120;1.178;2023-09-18T18:08:21;1.88;;;1.20;;
26391;SDS011;14572;43.120;1.178;2023-09-18T18:10:50;6.63;;;1.83;;
26391;SDS011;14572;43.120;1.178;2023-09-18T18:13:17;6.35;;;1.40;;
26391;SDS011;14572;43.120;1.178;2023-09-18T18:15:48;4.80;;;1.40;;
26391;SDS011;14572;43.120;1.178;2023-09-18T18:18:16;4.65;;;1.33;;
26391;SDS011;14572;43.120;1.178;2023-09-18T18:20:43;2.10;;;1.23;;
26391;SDS011;14572;43.120;1.178;2023-09-18T18:23:11;3.70;;;1.38;;
26391;SDS011;14572;43.120;1.178;2023-09-18T18:25:46;4.57;;;1.17;;
26391;SDS011;14572;43.120;1.178;2023-09-18T18:28:30;5.45;;;1.50;;
26391;SDS011;14572;43.120;1.178;2023-09-18T18:30:59;6.57;;;1.88;;
26391;SDS011;14572;43.120;1.178;2023-09-18T18:33:28;3.13;;;1.50;;
26391;SDS011;14572;43.120;1.178;2023-09-18T18:35:55;4.15;;;1.30;;
26391;SDS011;14572;43.120;1.178;2023-09-18T18:38:22;8.35;;;1.50;;
26391;SDS011;14572;43.120;1.178;2023-09-18T18:40:57;4.18;;;1.60;;
26391;SDS011;14572;43.120;1.178;2023-09-18T18:43:26;5.95;;;1.50;;
26391;SDS011;14572;43.120;1.178;2023-09-18T18:45:56;10.43;;;1.60;;
26391;SDS011;14572;43.120;1.178;2023-09-18T18:48:27;6.55;;;1.30;;
26391;SDS011;14572;43.120;1.178;2023-09-18T18:50:59;5.07;;;1.50;;
26391;SDS011;14572;43.120;1.178;2023-09-18T18:53:29;4.85;;;1.30;;
26391;SDS011;14572;43.120;1.178;2023-09-18T18:56:03;4.07;;;1.58;;
26391;SDS011;14572;43.120;1.178;2023-09-18T18:58:38;4.00;;;1.60;;
26391;SDS011;14572;43.120;1.178;2023-09-18T19:01:05;4.90;;;1.52;;
26391;SDS011;14572;43.120;1.178;2023-09-18T19:03:33;6.85;;;1.52;;
26391;SDS011;14572;43.120;1.178;2023-09-18T19:06:02;5.65;;;1.58;;
26391;SDS011;14572;43.120;1.178;2023-09-18T19:08:29;5.32;;;1.30;;
26391;SDS011;14572;43.120;1.178;2023-09-18T19:10:58;3.97;;;1.55;;
26391;SDS011;14572;43.120;1.178;2023-09-18T19:13:28;5.50;;;1.48;;
26391;SDS011;14572;43.120;1.178;2023-09-18T19:15:55;3.70;;;1.88;;
26391;SDS011;14572;43.120;1.178;2023-09-18T19:18:23;5.25;;;1.45;;
26391;SDS011;14572;43.120;1.178;2023-09-18T19:20:55;4.13;;;1.30;;
26391;SDS011;14572;43.120;1.178;2023-09-18T19:23:23;4.60;;;1.33;;
26391;SDS011;14572;43.120;1.178;2023-09-18T19:25:51;5.22;;;1.50;;
26391;SDS011;14572;43.120;1.178;2023-09-18T19:28:25;4.00;;;1.38;;
26391;SDS011;14572;43.120;1.178;2023-09-18T19:30:53;4.30;;;1.50;;
26391;SDS011;14572;43.120;1.178;2023-09-18T19:33:24;3.47;;;1.60;;
26391;SDS011;14572;43.120;1.178;2023-09-18T19:35:52;4.43;;;1.60;;
26391;SDS011;14572;43.120;1.178;2023-09-18T19:38:24;8.02;;;1.70;;
26391;SDS011;14572;43.120;1.178;2023-09-18T19:40:53;5.65;;;1.20;;
26391;SDS011;14572;43.120;1.178;2023-09-18T19:43:20;5.07;;;1.42;;
26391;SDS011;14572;43.120;1.178;2023-09-18T19:45:48;4.05;;;1.52;;
26391;SDS011;14572;43.120;1.178;2023-09-18T19:48:16;7.13;;;1.80;;
26391;SDS011;14572;43.120;1.178;2023-09-18T19:50:44;5.05;;;1.55;;
26391;SDS011;14572;43.120;1.178;2023-09-18T19:53:13;5.75;;;1.70;;
26391;SDS011;14572;43.120;1.178;2023-09-18T19:55:40;5.63;;;1.45;;
26391;SDS011;14572;43.120;1.178;2023-09-18T19:58:11;7.18;;;1.92;;
26391;SDS011;14572;43.120;1.178;2023-09-18T20:00:39;4.03;;;1.55;;
26391;SDS011;14572;43.120;1.178;2023-09-18T20:03:08;2.55;;;1.30;;
26391;SDS011;14572;43.120;1.178;2023-09-18T20:05:44;3.67;;;1.50;;
26391;SDS011;14572;43.120;1.178;2023-09-18T20:08:12;5.78;;;1.75;;
26391;SDS011;14572;43.120;1.178;2023-09-18T20:10:39;5.30;;;1.50;;
26391;SDS011;14572;43.120;1.178;2023-09-18T20:16:41;6.47;;;1.50;;